NCAR-RAP Real-Time Weather Data

Output produced by METARs form (08 May 2021  01:30 UTC)
found at http://weather.rap.ucar.edu/surface/
 
KALW 080053Z 22012G19KT 190V260 10SM -RA BKN060 OVC075 10/02 A3013 RMK AO2 LTG DSNT W RAB06 SLP205 P0001 T01000022
KALW 072353Z 27005G15KT 10SM OVC090 12/M02 A3012 RMK AO2 PK WND 26037/2310 RAB11E28 SLP203 P0000 60000 T01221017 10161 20106 53007
KALW 072253Z 27025G38KT 10SM FEW120 13/M01 A3012 RMK AO2 PK WND 27038/2247 SLP200 T01281011
KALW 072153Z 26024G34KT 10SM CLR 16/M03 A3010 RMK AO2 PK WND 26037/2124 SLP192 T01611028
KALW 072053Z 24018G30KT 210V290 10SM BKN065 BKN110 15/M02 A3010 RMK AO2 PK WND 22030/2053 RAE12 SLP193 P0000 60000 T01501017 58007
KALW 071953Z 25012G23KT 10SM -RA BKN080 BKN100 13/M01 A3011 RMK AO2 PK WND 24026/1941 RAB45 SLP199 P0000 T01331011
KALW 071853Z 24020G27KT 10SM SCT055 13/M01 A3012 RMK AO2 PK WND 22027/1802 SLP200 T01331011
KALW 071753Z 24018G26KT 10SM SCT085 13/01 A3012 RMK AO2 PK WND 23028/1742 SLP202 T01280011 10128 20083 58007
KALW 071653Z 24018G25KT 10SM SCT085 12/00 A3014 RMK AO2 SLP206 T01170000
KALW 071553Z 23015G22KT 10SM CLR 11/01 A3014 RMK AO2 SLP206 T01060011
KALW 071453Z 18012G23KT 10SM CLR 09/00 A3015 RMK AO2 SLP209 T00940000 51015
KALW 071353Z 18010KT 10SM SCT050 08/01 A3013 RMK AO2 SLP203 T00830006
KALW 071253Z 18010KT 10SM OVC090 09/02 A3012 RMK AO2 SLP199 T00890017